createdAt,value
2016-05-29T00:00:46.685Z,17.46
2016-05-29T00:01:50.313Z,17.38
2016-05-29T00:02:46.596Z,17.41
2016-05-29T00:03:46.537Z,17.41
2016-05-29T00:04:46.493Z,17.42
2016-05-29T00:05:47.387Z,17.42
2016-05-29T00:06:46.248Z,17.38
2016-05-29T00:07:46.376Z,17.42
2016-05-29T00:08:46.317Z,17.34
2016-05-29T00:09:46.287Z,17.39
2016-05-29T00:10:46.072Z,17.31
2016-05-29T00:11:46.167Z,17.39
2016-05-29T00:12:46.140Z,17.3
2016-05-29T00:13:46.078Z,17.33
2016-05-29T00:14:46.033Z,17.36
2016-05-29T00:15:45.832Z,17.27
2016-05-29T00:16:45.944Z,17.29
2016-05-29T00:17:45.884Z,17.3
2016-05-29T00:18:45.700Z,17.3
2016-05-29T00:19:45.656Z,17.3
2016-05-29T00:20:45.455Z,17.3
2016-05-29T00:21:45.724Z,17.38
2016-05-29T00:22:45.664Z,17.33
2016-05-29T00:23:45.619Z,17.27
2016-05-29T00:24:45.575Z,17.3
2016-05-29T00:25:45.547Z,17.24
2016-05-29T00:26:45.487Z,17.27
2016-05-29T00:27:45.427Z,17.26
2016-05-29T00:28:45.398Z,17.31
2016-05-29T00:29:45.338Z,17.29
2016-05-29T00:30:45.294Z,17.27
2016-05-29T00:31:45.251Z,17.29
2016-05-29T00:32:45.206Z,17.29
2016-05-29T00:33:45.177Z,17.24
2016-05-29T00:34:45.118Z,17.27
2016-05-29T00:35:44.902Z,17.33
2016-05-29T00:36:45.014Z,17.26
2016-05-29T00:37:44.970Z,17.29
2016-05-29T00:38:44.784Z,17.3
2016-05-29T00:39:44.740Z,17.34
2016-05-29T00:40:44.837Z,17.39
2016-05-29T00:41:44.793Z,17.33
2016-05-29T00:42:44.764Z,17.31
2016-05-29T00:43:44.689Z,17.3
2016-05-29T00:44:44.661Z,17.33
2016-05-29T00:45:44.475Z,17.34
2016-05-29T00:46:44.572Z,17.3
2016-05-29T00:47:44.528Z,17.22
2016-05-29T00:48:44.483Z,17.23
2016-05-29T00:49:44.424Z,17.27
2016-05-29T00:50:44.364Z,17.29
2016-05-29T00:51:44.194Z,17.3
2016-05-29T00:52:44.151Z,17.29
2016-05-29T00:53:44.263Z,17.26
2016-05-29T00:54:44.203Z,17.27
2016-05-29T00:55:44.143Z,17.19
2016-05-29T00:56:44.114Z,17.27
2016-05-29T00:57:44.054Z,17.2
2016-05-29T00:58:44.042Z,17.27
2016-05-29T00:59:43.966Z,17.24
2016-05-29T01:00:43.921Z,17.29
2016-05-29T01:01:43.722Z,17.23
2016-05-29T01:02:43.834Z,17.23
2016-05-29T01:03:43.790Z,17.27
2016-05-29T01:04:43.729Z,17.26
2016-05-29T01:05:44.092Z,17.22
2016-05-29T01:06:43.641Z,17.2
2016-05-29T01:07:43.457Z,17.29
2016-05-29T01:08:43.396Z,17.27
2016-05-29T01:09:43.524Z,17.27
2016-05-29T01:10:43.448Z,17.24
2016-05-29T01:11:43.264Z,17.2
2016-05-29T01:12:43.361Z,17.19
2016-05-29T01:13:43.175Z,17.23
2016-05-29T01:14:43.272Z,17.27
2016-05-29T01:15:43.228Z,17.27
2016-05-29T01:16:43.168Z,17.26
2016-05-29T01:17:42.967Z,17.16
2016-05-29T01:18:42.970Z,17.27
2016-05-29T01:19:43.051Z,17.2
2016-05-29T01:20:42.897Z,17.22
2016-05-29T01:21:42.806Z,17.26
2016-05-29T01:22:42.919Z,17.27
2016-05-29T01:23:42.874Z,17.19
2016-05-29T01:24:42.830Z,17.22
2016-05-29T01:25:42.630Z,17.23
2016-05-29T01:26:42.727Z,17.22
2016-05-29T01:27:42.697Z,17.22
2016-05-29T01:28:42.622Z,17.19
2016-05-29T01:29:42.578Z,17.2
2016-05-29T01:30:42.535Z,17.22
2016-05-29T01:31:42.505Z,17.12
2016-05-29T01:32:42.477Z,17.16
2016-05-29T01:33:42.418Z,17.2
2016-05-29T01:34:42.357Z,17.15
2016-05-29T01:35:42.157Z,17.23
2016-05-29T01:36:42.269Z,17.14
2016-05-29T01:37:42.224Z,17.11
2016-05-29T01:38:42.181Z,17.08
2016-05-29T01:39:42.137Z,17.08
2016-05-29T01:40:41.951Z,17.09
2016-05-29T01:41:42.048Z,17.05
2016-05-29T01:42:41.676Z,17.08
2016-05-29T01:43:41.975Z,17.08
2016-05-29T01:44:41.915Z,17.04
2016-05-29T01:45:41.856Z,17.05
2016-05-29T01:46:41.828Z,17.11
2016-05-29T01:47:41.767Z,17.11
2016-05-29T01:48:41.723Z,17.2
2016-05-29T01:49:41.663Z,17.11
2016-05-29T01:50:41.494Z,17.12
2016-05-29T01:51:41.575Z,17.15
2016-05-29T01:52:41.530Z,17.12
2016-05-29T01:53:41.502Z,17.14
2016-05-29T01:54:41.442Z,17.14
2016-05-29T01:55:41.397Z,17.16
2016-05-29T01:56:41.197Z,17.14
2016-05-29T01:57:41.310Z,17.16
2016-05-29T01:58:41.109Z,17.14
2016-05-29T01:59:41.206Z,17.26
2016-05-29T02:00:41.161Z,17.09
2016-05-29T02:01:40.977Z,17.15
2016-05-29T02:02:41.073Z,17.14
2016-05-29T02:03:41.044Z,17.12
2016-05-29T02:04:40.969Z,17.15
2016-05-29T02:05:40.957Z,17.19
2016-05-29T02:06:40.897Z,17.12
2016-05-29T02:07:40.695Z,17.14
2016-05-29T02:08:40.808Z,17.15
2016-05-29T02:09:40.765Z,17.14
2016-05-29T02:10:40.548Z,17.16
2016-05-29T02:11:40.675Z,17.2
2016-05-29T02:12:40.616Z,17.15
2016-05-29T02:13:40.571Z,17.16
2016-05-29T02:14:40.559Z,17.22
2016-05-29T02:15:40.498Z,17.16
2016-05-29T02:16:40.439Z,17.27
2016-05-29T02:17:40.395Z,17.26
2016-05-29T02:18:40.382Z,17.22
2016-05-29T02:19:40.291Z,17.24
2016-05-29T02:20:40.184Z,17.2
2016-05-29T02:21:40.046Z,17.23
2016-05-29T02:22:40.002Z,17.22
2016-05-29T02:23:40.130Z,17.11
2016-05-29T02:24:40.069Z,17.06
2016-05-29T02:25:40.025Z,17.09
2016-05-29T02:26:39.981Z,17.15
2016-05-29T02:27:39.938Z,17.22
2016-05-29T02:28:39.908Z,17.09
2016-05-29T02:29:39.849Z,17.2
2016-05-29T02:30:39.789Z,17.22
2016-05-29T02:31:39.760Z,17.19
2016-05-29T02:32:39.716Z,17.15
2016-05-29T02:33:39.500Z,17.24
2016-05-29T02:34:39.613Z,17.26
2016-05-29T02:35:39.709Z,17.14
2016-05-29T02:36:39.352Z,17.27
2016-05-29T02:37:39.479Z,17.2
2016-05-29T02:38:39.451Z,17.12
2016-05-29T02:39:39.376Z,17.15
2016-05-29T02:40:39.347Z,17.27
2016-05-29T02:41:39.304Z,17.16
2016-05-29T02:42:39.274Z,17.2
2016-05-29T02:43:39.199Z,17.22
2016-05-29T02:44:39.154Z,17.23
2016-05-29T02:45:39.126Z,17.22
2016-05-29T02:46:39.082Z,17.19
2016-05-29T02:47:39.022Z,17.2
2016-05-29T02:48:38.963Z,17.19
2016-05-29T02:49:38.934Z,17.23
2016-05-29T02:50:38.734Z,17.14
2016-05-29T02:51:38.830Z,17.16
2016-05-29T02:52:38.800Z,17.26
2016-05-29T02:53:38.742Z,17.19
2016-05-29T02:54:38.697Z,17.26
2016-05-29T02:55:38.653Z,17.2
2016-05-29T02:56:38.624Z,17.22
2016-05-29T02:57:38.440Z,17.22
2016-05-29T02:58:38.521Z,17.26
2016-05-29T02:59:38.476Z,17.23
2016-05-29T03:00:38.433Z,17.24
2016-05-29T03:01:38.372Z,17.15
2016-05-29T03:02:38.328Z,17.22
2016-05-29T03:03:38.127Z,17.15
2016-05-29T03:04:38.255Z,17.15
2016-05-29T03:05:38.196Z,17.26
2016-05-29T03:06:38.135Z,17.14
2016-05-29T03:07:38.107Z,17.16
2016-05-29T03:08:38.048Z,17.24
2016-05-29T03:09:38.004Z,17.09
2016-05-29T03:10:37.959Z,17.06
2016-05-29T03:11:37.931Z,17.06
2016-05-29T03:12:37.871Z,17.19
2016-05-29T03:13:37.842Z,17.09
2016-05-29T03:14:37.814Z,17.19
2016-05-29T03:15:37.738Z,17.16
2016-05-29T03:16:37.679Z,17.09
2016-05-29T03:17:37.509Z,17.08
2016-05-29T03:18:37.589Z,17.11
2016-05-29T03:19:37.545Z,17.05
2016-05-29T03:20:37.501Z,17.09
2016-05-29T03:21:37.458Z,17.09
2016-05-29T03:22:37.413Z,16.97
2016-05-29T03:23:37.385Z,17.05
2016-05-29T03:24:37.184Z,17.05
2016-05-29T03:25:37.280Z,16.99
2016-05-29T03:26:37.222Z,17.02
2016-05-29T03:27:37.192Z,16.97
2016-05-29T03:28:36.977Z,16.99
2016-05-29T03:29:37.104Z,17.05
2016-05-29T03:30:37.044Z,16.96
2016-05-29T03:31:37.031Z,16.91
2016-05-29T03:32:36.955Z,16.94
2016-05-29T03:33:36.896Z,16.99
2016-05-29T03:34:36.852Z,17.02
2016-05-29T03:35:37.073Z,16.94
2016-05-29T03:36:36.779Z,17.01
2016-05-29T03:37:36.704Z,17.04
2016-05-29T03:38:36.535Z,16.94
2016-05-29T03:39:36.459Z,16.99
2016-05-29T03:40:36.587Z,17.01
2016-05-29T03:41:36.527Z,16.97
2016-05-29T03:42:36.482Z,17.02
2016-05-29T03:43:36.438Z,16.94
2016-05-29T03:44:36.395Z,16.91
2016-05-29T03:45:36.365Z,16.97
2016-05-29T03:46:36.306Z,17.04
2016-05-29T03:47:36.262Z,17.02
2016-05-29T03:48:36.217Z,17.01
2016-05-29T03:49:36.173Z,16.97
2016-05-29T03:50:36.676Z,17.06
2016-05-29T03:51:36.070Z,16.96
2016-05-29T03:52:35.869Z,17.05
2016-05-29T03:53:35.981Z,17.02
2016-05-29T03:54:35.781Z,16.97
2016-05-29T03:55:35.877Z,17.04
2016-05-29T03:56:35.864Z,17.05
2016-05-29T03:57:35.789Z,16.96
2016-05-29T03:58:35.744Z,17.04
2016-05-29T03:59:35.716Z,17.02
2016-05-29T04:00:35.671Z,16.99
2016-05-29T04:01:35.612Z,17.02
2016-05-29T04:02:35.583Z,16.89
2016-05-29T04:03:35.366Z,17.02
2016-05-29T04:04:35.464Z,16.94
2016-05-29T04:05:35.545Z,17.04
2016-05-29T04:06:35.422Z,16.97
2016-05-29T04:07:35.331Z,16.96
2016-05-29T04:08:35.178Z,16.91
2016-05-29T04:09:35.243Z,16.9
2016-05-29T04:10:35.198Z,16.91
2016-05-29T04:11:35.138Z,16.91
2016-05-29T04:12:35.110Z,17.01
2016-05-29T04:13:35.051Z,17.01
2016-05-29T04:14:34.850Z,17.02
2016-05-29T04:15:34.962Z,16.99
2016-05-29T04:16:34.777Z,16.87
2016-05-29T04:17:34.858Z,16.94
2016-05-29T04:18:34.814Z,16.94
2016-05-29T04:19:34.785Z,16.94
2016-05-29T04:20:34.773Z,16.93
2016-05-29T04:21:34.697Z,17.06
2016-05-29T04:22:34.637Z,16.89
2016-05-29T04:23:34.593Z,16.96
2016-05-29T04:24:34.392Z,16.97
2016-05-29T04:25:34.505Z,17.04
2016-05-29T04:26:34.319Z,17.05
2016-05-29T04:27:34.401Z,16.97
2016-05-29T04:28:34.372Z,17.08
2016-05-29T04:29:34.311Z,16.99
2016-05-29T04:30:34.268Z,17.05
2016-05-29T04:31:34.239Z,17.02
2016-05-29T04:32:34.180Z,16.96
2016-05-29T04:33:34.151Z,17.01
2016-05-29T04:34:34.092Z,17.02
2016-05-29T04:35:34.297Z,17.02
2016-05-29T04:36:34.144Z,17.04
2016-05-29T04:37:33.943Z,17.06
2016-05-29T04:38:33.914Z,17.09
2016-05-29T04:39:33.855Z,17.05
2016-05-29T04:40:33.826Z,17.08
2016-05-29T04:41:33.766Z,17.12
2016-05-29T04:42:33.706Z,17.05
2016-05-29T04:43:33.663Z,17.08
2016-05-29T04:44:33.493Z,17.06
2016-05-29T04:45:33.589Z,17.04
2016-05-29T04:46:33.530Z,17.08
2016-05-29T04:47:33.485Z,17.09
2016-05-29T04:48:33.457Z,17.06
2016-05-29T04:49:33.398Z,17.14
2016-05-29T04:50:33.556Z,17.15
2016-05-29T04:51:33.293Z,17.15
2016-05-29T04:52:33.248Z,17.16
2016-05-29T04:53:33.220Z,17.15
2016-05-29T04:54:33.161Z,17.2
2016-05-29T04:55:33.132Z,17.09
2016-05-29T04:56:33.072Z,17.08
2016-05-29T04:57:32.887Z,17.11
2016-05-29T04:58:32.984Z,17.15
2016-05-29T04:59:32.783Z,17.2
2016-05-29T05:00:32.895Z,17.23
2016-05-29T05:01:32.836Z,17.15
2016-05-29T05:02:32.808Z,17.2
2016-05-29T05:03:32.763Z,17.24
2016-05-29T05:04:32.578Z,17.26
2016-05-29T05:05:32.768Z,17.26
2016-05-29T05:06:33.240Z,17.22
2016-05-29T05:07:32.414Z,17.26
2016-05-29T05:08:32.526Z,17.26
2016-05-29T05:09:32.467Z,17.22
2016-05-29T05:10:32.438Z,17.23
2016-05-29T05:11:32.222Z,17.23
2016-05-29T05:12:32.349Z,17.23
2016-05-29T05:13:32.305Z,17.26
2016-05-29T05:14:32.246Z,17.3
2016-05-29T05:15:32.201Z,17.27
2016-05-29T05:16:32.158Z,17.26
2016-05-29T05:17:32.113Z,17.3
2016-05-29T05:18:32.069Z,17.34
2016-05-29T05:19:32.040Z,17.31
2016-05-29T05:20:33.245Z,17.38
2016-05-29T05:21:32.468Z,17.39
2016-05-29T05:22:31.892Z,17.41
2016-05-29T05:23:31.832Z,17.38
2016-05-29T05:24:32.022Z,17.41
2016-05-29T05:25:31.760Z,17.39
2016-05-29T05:26:31.700Z,17.48
2016-05-29T05:27:31.655Z,17.41
2016-05-29T05:28:31.628Z,17.46
2016-05-29T05:29:31.567Z,17.49
2016-05-29T05:30:31.523Z,17.46
2016-05-29T05:31:31.478Z,17.48
2016-05-29T05:32:31.294Z,17.44
2016-05-29T05:33:31.375Z,17.56
2016-05-29T05:34:31.346Z,17.57
2016-05-29T05:35:31.614Z,17.65
2016-05-29T05:36:32.946Z,17.65
2016-05-29T05:37:31.214Z,17.57
2016-05-29T05:38:31.154Z,17.64
2016-05-29T05:39:30.969Z,17.64
2016-05-29T05:40:31.066Z,17.65
2016-05-29T05:41:31.021Z,17.67
2016-05-29T05:42:30.977Z,17.63
2016-05-29T05:43:30.948Z,17.64
2016-05-29T05:44:30.888Z,17.72
2016-05-29T05:45:30.845Z,17.8
2016-05-29T05:46:30.801Z,17.74
2016-05-29T05:47:30.584Z,17.8
2016-05-29T05:48:30.728Z,17.78
2016-05-29T05:49:30.668Z,17.83
2016-05-29T05:50:31.779Z,17.79
2016-05-29T05:51:30.549Z,17.82
2016-05-29T05:52:30.520Z,17.85
2016-05-29T05:53:30.491Z,17.87
2016-05-29T05:54:30.448Z,17.94
2016-05-29T05:55:30.387Z,17.92
2016-05-29T05:56:30.342Z,17.9
2016-05-29T05:57:30.298Z,17.97
2016-05-29T05:58:30.270Z,17.98
2016-05-29T05:59:30.054Z,17.9
2016-05-29T06:00:30.166Z,17.95
2016-05-29T06:01:29.981Z,17.95
2016-05-29T06:02:30.093Z,18.07
2016-05-29T06:03:30.050Z,18.04
2016-05-29T06:04:29.974Z,18.01
2016-05-29T06:05:29.961Z,18.05
2016-05-29T06:06:30.276Z,18.08
2016-05-29T06:07:29.701Z,18.08
2016-05-29T06:08:29.516Z,18.2
2016-05-29T06:09:29.768Z,18.1
2016-05-29T06:10:29.724Z,18.13
2016-05-29T06:11:29.680Z,18.11
2016-05-29T06:12:29.636Z,18.04
2016-05-29T06:13:29.420Z,18.11
2016-05-29T06:14:29.532Z,18.15
2016-05-29T06:15:29.488Z,18.08
2016-05-29T06:16:29.443Z,18.08
2016-05-29T06:17:29.399Z,18.08
2016-05-29T06:18:29.355Z,18.1
2016-05-29T06:19:29.155Z,18.19
2016-05-29T06:20:30.001Z,18.18
2016-05-29T06:21:29.238Z,18.19
2016-05-29T06:22:29.162Z,18.22
2016-05-29T06:23:29.134Z,18.26
2016-05-29T06:24:29.090Z,18.34
2016-05-29T06:25:29.045Z,18.31
2016-05-29T06:26:28.845Z,18.33
2016-05-29T06:27:28.973Z,18.29
2016-05-29T06:28:28.914Z,18.31
2016-05-29T06:29:28.869Z,18.31
2016-05-29T06:30:28.809Z,18.41
2016-05-29T06:31:28.906Z,18.37
2016-05-29T06:32:28.815Z,18.38
2016-05-29T06:33:28.708Z,18.38
2016-05-29T06:34:28.679Z,18.34
2016-05-29T06:35:28.823Z,18.4
2016-05-29T06:36:28.732Z,18.4
2016-05-29T06:37:28.344Z,18.45
2016-05-29T06:38:28.315Z,18.41
2016-05-29T06:39:28.412Z,18.43
2016-05-29T06:40:28.368Z,18.45
2016-05-29T06:41:28.323Z,18.53
2016-05-29T06:42:28.280Z,18.44
2016-05-29T06:43:28.235Z,18.47
2016-05-29T06:44:28.034Z,18.53
2016-05-29T06:45:28.131Z,18.56
2016-05-29T06:46:27.947Z,18.55
2016-05-29T06:47:27.918Z,18.63
2016-05-29T06:48:27.998Z,18.6
2016-05-29T06:49:27.813Z,18.68
2016-05-29T06:50:27.784Z,18.68
2016-05-29T06:51:27.757Z,18.73
2016-05-29T06:52:27.868Z,18.75
2016-05-29T06:53:27.778Z,18.71
2016-05-29T06:54:27.734Z,18.84
2016-05-29T06:55:27.690Z,18.86
2016-05-29T06:56:27.645Z,18.86
2016-05-29T06:57:27.631Z,18.89
2016-05-29T06:58:27.417Z,18.8
2016-05-29T06:59:27.512Z,18.9
2016-05-29T07:00:27.484Z,18.95
2016-05-29T07:01:27.424Z,19.04
2016-05-29T07:02:27.380Z,18.96
2016-05-29T07:03:27.226Z,19
2016-05-29T07:04:27.291Z,19.09
2016-05-29T07:05:27.247Z,19.09
2016-05-29T07:06:27.203Z,19.09
2016-05-29T07:07:27.159Z,19.12
2016-05-29T07:08:27.114Z,19.12
2016-05-29T07:09:27.086Z,19.16
2016-05-29T07:10:27.027Z,19.14
2016-05-29T07:11:26.982Z,19.19
2016-05-29T07:12:26.938Z,19.12
2016-05-29T07:13:26.894Z,19.22
2016-05-29T07:14:26.849Z,19.26
2016-05-29T07:15:26.649Z,19.34
2016-05-29T07:16:26.761Z,19.3
2016-05-29T07:17:26.717Z,19.3
2016-05-29T07:18:26.673Z,19.41
2016-05-29T07:19:26.316Z,19.44
2016-05-29T07:20:26.460Z,19.24
2016-05-29T07:21:27.290Z,19.3
2016-05-29T07:22:26.340Z,19.31
2016-05-29T07:23:26.467Z,19.36
2016-05-29T07:24:26.439Z,19.44
2016-05-29T07:25:26.364Z,19.44
2016-05-29T07:26:26.320Z,19.51
2016-05-29T07:27:26.134Z,19.56
2016-05-29T07:28:26.231Z,19.52
2016-05-29T07:29:26.203Z,19.52
2016-05-29T07:30:26.127Z,19.51
2016-05-29T07:31:25.958Z,19.59
2016-05-29T07:32:26.070Z,19.58
2016-05-29T07:33:25.869Z,19.63
2016-05-29T07:34:25.967Z,19.63
2016-05-29T07:35:25.766Z,19.66
2016-05-29T07:36:26.253Z,19.56
2016-05-29T07:37:25.677Z,19.62
2016-05-29T07:38:25.804Z,19.67
2016-05-29T07:39:25.745Z,19.71
2016-05-29T07:40:25.716Z,19.63
2016-05-29T07:41:25.657Z,19.67
2016-05-29T07:42:25.612Z,19.66
2016-05-29T07:43:25.569Z,19.73
2016-05-29T07:44:25.368Z,19.77
2016-05-29T07:45:25.338Z,19.79
2016-05-29T07:46:25.436Z,19.82
2016-05-29T07:47:25.391Z,19.79
2016-05-29T07:48:25.379Z,19.79
2016-05-29T07:49:25.303Z,19.76
2016-05-29T07:50:25.446Z,19.76
2016-05-29T07:51:26.043Z,19.84
2016-05-29T07:52:25.186Z,19.85
2016-05-29T07:53:25.142Z,19.86
2016-05-29T07:54:25.082Z,19.85
2016-05-29T07:55:24.882Z,19.92
2016-05-29T07:56:24.993Z,20.02
2016-05-29T07:57:24.965Z,19.96
2016-05-29T07:58:24.906Z,20.04
2016-05-29T07:59:24.720Z,20.06
2016-05-29T08:00:24.833Z,20.13
2016-05-29T08:01:24.789Z,20.13
2016-05-29T08:02:24.745Z,20.1
2016-05-29T08:03:24.528Z,20.13
2016-05-29T08:04:24.530Z,20.06
2016-05-29T08:05:24.846Z,20.04
2016-05-29T08:06:25.817Z,20.02
2016-05-29T08:07:24.523Z,20.07
2016-05-29T08:08:24.494Z,20.13
2016-05-29T08:09:24.278Z,20.13
2016-05-29T08:10:24.235Z,20.18
2016-05-29T08:11:24.363Z,20.16
2016-05-29T08:12:24.318Z,20.13
2016-05-29T08:13:24.274Z,20.16
2016-05-29T08:14:24.229Z,20.18
2016-05-29T08:15:24.186Z,20.14
2016-05-29T08:16:24.126Z,20.28
2016-05-29T08:17:24.096Z,20.28
2016-05-29T08:18:24.053Z,20.25
2016-05-29T08:19:23.993Z,20.39
2016-05-29T08:20:23.808Z,20.48
2016-05-29T08:21:23.998Z,20.4
2016-05-29T08:22:23.877Z,20.52
2016-05-29T08:23:23.832Z,20.5
2016-05-29T08:24:23.788Z,20.47
2016-05-29T08:25:23.759Z,20.55
2016-05-29T08:26:23.684Z,20.52
2016-05-29T08:27:23.678Z,20.55
2016-05-29T08:28:23.656Z,20.56
2016-05-29T08:29:23.634Z,20.6
2016-05-29T08:30:23.595Z,20.6
2016-05-29T08:31:23.590Z,20.56
2016-05-29T08:32:23.381Z,20.6
2016-05-29T08:33:23.502Z,20.65
2016-05-29T08:34:23.310Z,20.6
2016-05-29T08:35:23.242Z,20.66
2016-05-29T08:36:23.394Z,20.66
2016-05-29T08:37:23.383Z,20.7
2016-05-29T08:38:23.311Z,20.77
2016-05-29T08:39:23.270Z,20.82
2016-05-29T08:40:23.105Z,20.82
2016-05-29T08:41:23.203Z,20.85
2016-05-29T08:42:23.160Z,20.85
2016-05-29T08:43:23.101Z,20.84
2016-05-29T08:44:23.058Z,20.88
2016-05-29T08:45:23.030Z,20.96
2016-05-29T08:46:22.986Z,20.97
2016-05-29T08:47:22.926Z,21.11
2016-05-29T08:48:22.743Z,21
2016-05-29T08:49:22.855Z,21.11
2016-05-29T08:50:23.108Z,21.02
2016-05-29T08:51:23.158Z,21.09
2016-05-29T08:52:22.567Z,21.06
2016-05-29T08:53:22.524Z,21.2
2016-05-29T08:54:22.480Z,21.2
2016-05-29T08:55:22.593Z,21.24
2016-05-29T08:56:22.548Z,21.21
2016-05-29T08:57:22.348Z,21.24
2016-05-29T08:58:22.242Z,21.24
2016-05-29T08:59:22.431Z,21.32
2016-05-29T09:00:22.419Z,21.35
2016-05-29T09:01:22.172Z,21.36
2016-05-29T09:02:22.300Z,21.33
2016-05-29T09:03:23.880Z,21.43
2016-05-29T09:04:22.195Z,21.46
2016-05-29T09:05:22.182Z,21.52
2016-05-29T09:06:22.278Z,21.55
2016-05-29T09:07:22.078Z,21.57
2016-05-29T09:08:21.878Z,21.62
2016-05-29T09:09:21.989Z,21.69
2016-05-29T09:10:21.930Z,21.73
2016-05-29T09:11:21.932Z,21.76
2016-05-29T09:12:21.889Z,21.82
2016-05-29T09:13:23.188Z,21.88
2016-05-29T09:14:21.769Z,21.89
2016-05-29T09:15:21.740Z,21.91
2016-05-29T09:16:21.696Z,21.88
2016-05-29T09:17:21.683Z,21.96
2016-05-29T09:18:22.982Z,22.15
2016-05-29T09:19:21.563Z,22.15
2016-05-29T09:20:21.535Z,22.23
2016-05-29T09:21:22.241Z,22.36
2016-05-29T09:22:21.274Z,22.33
2016-05-29T09:23:21.371Z,22.39
2016-05-29T09:24:21.343Z,22.35
2016-05-29T09:25:21.361Z,22.38
2016-05-29T09:26:20.957Z,22.54
2016-05-29T09:27:21.179Z,22.57
2016-05-29T09:28:21.369Z,22.53
2016-05-29T09:29:21.278Z,22.57
2016-05-29T09:30:20.953Z,22.72
2016-05-29T09:31:21.048Z,22.75
2016-05-29T09:32:21.051Z,22.7
2016-05-29T09:33:20.789Z,22.87
2016-05-29T09:34:20.917Z,22.91
2016-05-29T09:35:20.872Z,22.98
2016-05-29T09:36:21.766Z,23
2016-05-29T09:37:21.675Z,23.03
2016-05-29T09:38:21.427Z,23.02
2016-05-29T09:39:21.852Z,23.06
2016-05-29T09:40:21.854Z,23.09
2016-05-29T09:41:20.857Z,23.13
2016-05-29T09:42:21.375Z,23.23
2016-05-29T09:43:20.925Z,23.32
2016-05-29T09:44:21.412Z,23.32
2016-05-29T09:45:21.102Z,23.31
2016-05-29T09:46:21.902Z,23.31
2016-05-29T09:47:21.139Z,23.34
2016-05-29T09:48:25.985Z,23.4
2016-05-29T09:49:21.316Z,23.37
2016-05-29T09:50:21.100Z,23.48
2016-05-29T09:51:20.806Z,23.51
2016-05-29T09:52:21.449Z,23.48
2016-05-29T09:53:21.014Z,23.58
2016-05-29T09:54:21.111Z,23.54
2016-05-29T09:55:21.129Z,23.62
2016-05-29T09:56:20.804Z,23.62
2016-05-29T09:57:20.353Z,23.68
2016-05-29T09:58:20.809Z,23.68
2016-05-29T09:59:21.484Z,23.8
2016-05-29T10:00:20.923Z,23.86
2016-05-29T10:01:19.865Z,23.81
2016-05-29T10:02:20.054Z,23.98
2016-05-29T10:03:20.260Z,23.92
2016-05-29T10:04:21.091Z,24.01
2016-05-29T10:05:21.280Z,24.03
2016-05-29T10:06:20.831Z,23.99
2016-05-29T10:07:20.161Z,24.02
2016-05-29T10:08:20.586Z,23.99
2016-05-29T10:09:20.775Z,23.99
2016-05-29T10:10:24.795Z,23.99
2016-05-29T10:11:19.141Z,24.13
2016-05-29T10:12:21.175Z,24.14
2016-05-29T10:13:20.458Z,24.16
2016-05-29T10:14:21.039Z,24.18
2016-05-29T10:15:20.714Z,24.28
2016-05-29T10:16:20.826Z,24.32
2016-05-29T10:17:21.344Z,24.3
2016-05-29T10:18:18.815Z,24.3
2016-05-29T10:19:20.225Z,24.29
2016-05-29T10:20:20.227Z,24.3
2016-05-29T10:21:21.012Z,24.33
2016-05-29T10:22:20.904Z,24.33
2016-05-29T10:23:19.877Z,24.3
2016-05-29T10:24:19.770Z,24.26
2016-05-29T10:25:19.881Z,24.26
2016-05-29T10:26:19.307Z,24.28
2016-05-29T10:27:19.387Z,24.2
2016-05-29T10:28:19.906Z,24.11
2016-05-29T10:29:18.751Z,24.11
2016-05-29T10:30:18.817Z,24.13
2016-05-29T10:31:18.210Z,24.11
2016-05-29T10:32:19.666Z,24.13
2016-05-29T10:33:18.559Z,24.14
2016-05-29T10:34:18.828Z,24.11
2016-05-29T10:35:18.503Z,24.16
2016-05-29T10:36:18.911Z,24.11
2016-05-29T10:37:18.867Z,24.17
2016-05-29T10:38:19.260Z,24.18
2016-05-29T10:39:19.138Z,24.17
2016-05-29T10:40:19.172Z,24.11
2016-05-29T10:41:18.753Z,24.18
2016-05-29T10:42:18.489Z,24.17
2016-05-29T10:43:19.336Z,24.13
2016-05-29T10:44:17.761Z,24.11
2016-05-29T10:45:18.669Z,24.13
2016-05-29T10:46:18.766Z,24.1
2016-05-29T10:47:18.785Z,24.02
2016-05-29T10:48:18.616Z,24.16
2016-05-29T10:49:18.602Z,24.08
2016-05-29T10:50:18.558Z,24.08
2016-05-29T10:51:19.577Z,23.98
2016-05-29T10:52:19.048Z,24.05
2016-05-29T10:53:18.519Z,23.99
2016-05-29T10:54:18.444Z,24.11
2016-05-29T10:55:17.915Z,24.11
2016-05-29T10:56:18.637Z,24.01
2016-05-29T10:57:18.734Z,24.06
2016-05-29T10:58:18.267Z,24.1
2016-05-29T10:59:18.520Z,24.14
2016-05-29T11:00:18.648Z,24.1
2016-05-29T11:01:18.573Z,24.02
2016-05-29T11:02:17.700Z,24.05
2016-05-29T11:03:18.406Z,24.02
2016-05-29T11:04:17.753Z,24.02
2016-05-29T11:05:17.926Z,24.02
2016-05-29T11:06:19.289Z,24.03
2016-05-29T11:07:18.120Z,24.1
2016-05-29T11:08:17.434Z,24.03
2016-05-29T11:09:17.453Z,23.99
2016-05-29T11:10:17.956Z,23.81
2016-05-29T11:11:17.646Z,23.99
2016-05-29T11:12:17.227Z,23.93
2016-05-29T11:13:17.214Z,23.95
2016-05-29T11:14:17.091Z,23.91
2016-05-29T11:15:17.016Z,23.86
2016-05-29T11:16:17.174Z,23.87
2016-05-29T11:17:16.849Z,23.93
2016-05-29T11:18:17.993Z,23.93
2016-05-29T11:19:16.777Z,23.96
2016-05-29T11:20:16.966Z,23.91
2016-05-29T11:21:17.844Z,24.01
2016-05-29T11:22:16.738Z,24.03
2016-05-29T11:23:17.475Z,23.95
2016-05-29T11:24:17.368Z,23.99
2016-05-29T11:25:17.527Z,23.91
2016-05-29T11:26:17.686Z,23.98
2016-05-29T11:27:17.221Z,24.06
2016-05-29T11:28:16.895Z,23.98
2016-05-29T11:29:16.225Z,24.02
2016-05-29T11:30:16.901Z,24.05
2016-05-29T11:31:16.809Z,23.96
2016-05-29T11:32:16.265Z,24.03
2016-05-29T11:33:16.033Z,24.01
2016-05-29T11:34:16.551Z,24.02
2016-05-29T11:35:16.664Z,24.03
2016-05-29T11:36:16.026Z,24.01
2016-05-29T11:37:16.544Z,24.1
2016-05-29T11:38:16.484Z,24.14
2016-05-29T11:39:16.721Z,24.06
2016-05-29T11:40:15.771Z,24.01
2016-05-29T11:41:16.258Z,24.02
2016-05-29T11:42:16.386Z,24.1
2016-05-29T11:43:16.278Z,23.98
2016-05-29T11:44:16.531Z,23.98
2016-05-29T11:45:16.191Z,23.99
2016-05-29T11:46:16.490Z,23.99
2016-05-29T11:47:15.977Z,24.02
2016-05-29T11:48:16.308Z,24.01
2016-05-29T11:49:16.576Z,24.01
2016-05-29T11:50:14.657Z,23.99
2016-05-29T11:51:15.488Z,23.96
2016-05-29T11:52:16.162Z,23.93
2016-05-29T11:53:15.868Z,23.86
2016-05-29T11:54:16.090Z,23.88
2016-05-29T11:55:16.202Z,23.81
2016-05-29T11:56:14.657Z,23.8
2016-05-29T11:57:15.457Z,23.77
2016-05-29T11:58:15.913Z,23.8
2016-05-29T11:59:15.181Z,23.8
2016-05-29T12:00:15.215Z,23.76
2016-05-29T12:01:15.390Z,23.74
2016-05-29T12:02:15.189Z,23.74
2016-05-29T12:03:15.161Z,23.74
2016-05-29T12:04:15.007Z,23.77
2016-05-29T12:05:14.792Z,23.81
2016-05-29T12:06:15.137Z,23.78
2016-05-29T12:07:14.843Z,23.78
2016-05-29T12:08:14.768Z,23.8
2016-05-29T12:09:14.677Z,23.69
2016-05-29T12:10:15.008Z,23.83
2016-05-29T12:11:15.198Z,23.78
2016-05-29T12:12:14.685Z,23.71
2016-05-29T12:13:15.500Z,23.66
2016-05-29T12:14:14.472Z,23.81
2016-05-29T12:15:14.303Z,23.83
2016-05-29T12:16:14.727Z,23.77
2016-05-29T12:17:14.574Z,23.77
2016-05-29T12:18:15.497Z,23.77
2016-05-29T12:19:14.375Z,23.88
2016-05-29T12:20:14.238Z,23.74
2016-05-29T12:21:15.210Z,23.77
2016-05-29T12:22:14.290Z,23.73
2016-05-29T12:23:14.480Z,23.69
2016-05-29T12:24:14.420Z,23.58
2016-05-29T12:25:14.377Z,23.58
2016-05-29T12:26:15.004Z,23.59
2016-05-29T12:27:14.084Z,23.63
2016-05-29T12:28:13.774Z,23.65
2016-05-29T12:29:14.559Z,23.68
2016-05-29T12:30:14.390Z,23.62
2016-05-29T12:31:14.174Z,23.59
2016-05-29T12:32:14.129Z,23.47
2016-05-29T12:33:13.725Z,23.58
2016-05-29T12:34:13.587Z,23.47
2016-05-29T12:35:13.888Z,23.61
2016-05-29T12:36:13.562Z,23.47
2016-05-29T12:37:13.909Z,23.58
2016-05-29T12:38:13.801Z,23.62
2016-05-29T12:39:14.101Z,23.44
2016-05-29T12:40:13.760Z,23.48
2016-05-29T12:41:13.748Z,23.48
2016-05-29T12:42:13.422Z,23.23
2016-05-29T12:43:13.471Z,23.39
2016-05-29T12:44:13.255Z,23.4
2016-05-29T12:45:13.055Z,23.4
2016-05-29T12:46:12.917Z,23.4
2016-05-29T12:47:13.107Z,23.41
2016-05-29T12:48:13.625Z,23.51
2016-05-29T12:49:12.831Z,23.48
2016-05-29T12:50:12.944Z,23.54
2016-05-29T12:51:13.165Z,23.43
2016-05-29T12:52:12.808Z,23.46
2016-05-29T12:53:12.670Z,23.48
2016-05-29T12:54:12.549Z,23.43
2016-05-29T12:55:12.660Z,23.51